SBFL/FLN METAR and TAF weather

Enter ICAO airport designator
Station Type Date Time Source
SBFL METAR 2019/04/19 09:00 UTC NOAA

SBFL 190900Z 02003KT 9999 FEW011 BKN050 22/20 Q1013


Station Type Date Time Source
SBFL Decoded METAR 2019/04/19 09:00 UTC NOAA

Florianopolis Aeroporto , Brazil (SBFL) 27-40S 048-33W 5M
Apr 19, 2019 - 05:00 AM EDT / 2019.04.19 0900 UTC
Wind: from the NNE (020 degrees) at 3 MPH (3 KT):0
Visibility: greater than 7 mile(s):0
Sky conditions: mostly cloudy
Temperature: 71 F (22 C)
Dew Point: 68 F (20 C)
Relative Humidity: 88%
Pressure (altimeter): 29.91 in. Hg (1013 hPa)
ob: SBFL 190900Z 02003KT 9999 FEW011 BKN050 22/20 Q1013
cycle: 9

Station Type Date Time Source
SBFL TAF 2019/04/19 06:06 UTC NOAA

TAF SBFL 190130Z 1906/2006 21006KT CAVOK TN18/1908Z TX28/1918Z
BECMG 1912/1914 01007KT 9999 FEW040
BECMG 1920/1922 CAVOK
RMK PEB

Example: see airport list